Time;durP1;ratioP1;P1;durP2;ratioP2;P2;SDS_P1;SDS_P2;PMS_P1;PMS_P2;Temp;Humidity;BMP_temperature;BMP_pressure;BME280_temperature;BME280_humidity;BME280_pressure;Samples;Min_cycle;Max_cycle;Signal;HPM_P1;HPM_P2
2022/12/17 13:07:38;;;;;;;;;;;23.60;29.30;;;;;;500256;237;2409;-44
2022/12/17 13:09:40;;;;;;;;;;;23.60;29.20;;;;;;500100;237;2931;-41
2022/12/17 13:11:41;;;;;;;;;;;23.60;29.30;;;;;;500395;237;2018;-41
2022/12/17 13:13:54;;;;;;;;;;;23.60;29.40;;;;;;500237;237;1907;-44
2022/12/17 13:15:45;;;;;;;;;;;23.40;29.40;;;;;;499377;238;2369;-42
2022/12/17 13:17:46;;;;;;;;;;;23.20;29.60;;;;;;500318;237;1762;-41
2022/12/17 13:19:47;;;;;;;;;;;23.00;29.90;;;;;;500451;237;2333;-41
2022/12/17 13:21:49;;;;;;;;;;;22.80;30.00;;;;;;500474;237;1985;-44
2022/12/17 13:23:50;;;;;;;;;;;22.60;30.20;;;;;;500352;237;2149;-44
2022/12/17 13:25:51;;;;;;;;;;;22.50;30.50;;;;;;500377;237;1670;-41
2022/12/17 13:27:54;;;;;;;;;;;22.40;30.60;;;;;;500339;237;1817;-42
2022/12/17 13:29:55;;;;;;;;;;;22.30;30.70;;;;;;500070;238;2039;-44
2022/12/17 13:31:57;;;;;;;;;;;22.20;30.80;;;;;;500586;237;2037;-41
2022/12/17 13:33:59;;;;;;;;;;;22.20;30.90;;;;;;500501;237;1691;-41
2022/12/17 13:36:00;;;;;;;;;;;22.10;31.00;;;;;;500479;237;1872;-44
2022/12/17 13:38:02;;;;;;;;;;;22.10;31.10;;;;;;500322;237;2985;-44
2022/12/17 13:40:03;;;;;;;;;;;22.10;31.10;;;;;;500333;238;1761;-44
2022/12/17 13:42:05;;;;;;;;;;;22.00;31.10;;;;;;500284;237;1582;-44
2022/12/17 13:44:06;;;;;;;;;;;22.00;31.20;;;;;;500261;237;2196;-43
2022/12/17 13:46:08;;;;;;;;;;;21.90;31.20;;;;;;500328;237;2156;-44
2022/12/17 13:48:09;;;;;;;;;;;21.90;31.40;;;;;;500417;237;1976;-41
2022/12/17 13:50:10;;;;;;;;;;;21.90;31.30;;;;;;500292;237;2089;-41
2022/12/17 13:52:12;;;;;;;;;;;21.90;31.30;;;;;;500319;237;1819;-43
2022/12/17 13:54:13;;;;;;;;;;;21.90;31.40;;;;;;500386;237;1675;-44
2022/12/17 13:56:14;;;;;;;;;;;21.80;31.40;;;;;;500392;237;1919;-44
2022/12/17 13:58:16;;;;;;;;;;;21.80;31.40;;;;;;500437;237;1700;-44
2022/12/17 14:00:18;;;;;;;;;;;21.80;31.30;;;;;;500361;237;1678;-41
2022/12/17 14:02:19;;;;;;;;;;;21.80;31.50;;;;;;500523;237;1923;-44
2022/12/17 14:04:20;;;;;;;;;;;21.80;31.50;;;;;;500515;237;2163;-44
2022/12/17 14:06:22;;;;;;;;;;;21.80;31.50;;;;;;500528;237;1938;-44
2022/12/17 14:08:23;;;;;;;;;;;21.70;31.60;;;;;;500450;237;1553;-44
2022/12/17 14:10:25;;;;;;;;;;;21.70;31.60;;;;;;500425;237;2698;-43
2022/12/17 14:12:26;;;;;;;;;;;21.70;31.60;;;;;;500395;237;2174;-44
2022/12/17 14:14:28;;;;;;;;;;;21.70;31.60;;;;;;500520;237;1668;-43
2022/12/17 14:16:29;;;;;;;;;;;21.70;31.70;;;;;;500442;237;1754;-44
2022/12/17 14:18:31;;;;;;;;;;;21.60;31.70;;;;;;500387;238;2233;-44
2022/12/17 14:20:32;;;;;;;;;;;21.60;31.70;;;;;;500517;237;1811;-40
2022/12/17 14:22:35;;;;;;;;;;;21.60;31.70;;;;;;500442;237;2199;-42
2022/12/17 14:24:35;;;;;;;;;;;21.60;31.80;;;;;;499931;238;2266;-44
2022/12/17 14:26:37;;;;;;;;;;;21.70;31.80;;;;;;500516;237;1942;-42
2022/12/17 14:28:38;;;;;;;;;;;21.60;31.70;;;;;;500325;238;2657;-41
2022/12/17 14:30:40;;;;;;;;;;;21.60;31.80;;;;;;500425;237;1867;-44
2022/12/17 14:32:42;;;;;;;;;;;21.60;31.80;;;;;;500485;237;2243;-44
2022/12/17 14:34:43;;;;;;;;;;;21.60;31.80;;;;;;500451;237;1859;-43
2022/12/17 14:36:45;;;;;;;;;;;21.60;31.80;;;;;;500473;237;1632;-44
2022/12/17 14:38:46;;;;;;;;;;;21.60;31.90;;;;;;500531;237;1888;-40
2022/12/17 14:40:47;;;;;;;;;;;21.60;31.80;;;;;;500549;237;2074;-43
2022/12/17 14:42:49;;;;;;;;;;;21.80;31.50;;;;;;500742;237;2151;-44
2022/12/17 14:44:50;;;;;;;;;;;22.00;31.10;;;;;;500814;237;2167;-44
2022/12/17 14:46:52;;;;;;;;;;;22.20;30.90;;;;;;500531;237;2129;-42
2022/12/17 14:49:03;;;;;;;;;;;22.40;30.70;;;;;;500642;237;2071;-43
2022/12/17 14:51:05;;;;;;;;;;;22.50;30.50;;;;;;500616;237;2086;-43
2022/12/17 14:53:06;;;;;;;;;;;22.50;30.40;;;;;;500595;237;2416;-40
2022/12/17 14:55:08;;;;;;;;;;;22.50;30.50;;;;;;500450;237;1957;-43
2022/12/17 14:57:09;;;;;;;;;;;22.30;30.60;;;;;;500696;237;1690;-44
2022/12/17 14:59:10;;;;;;;;;;;22.10;30.80;;;;;;500321;237;1970;-44
2022/12/17 15:01:12;;;;;;;;;;;22.00;30.90;;;;;;500390;237;1702;-44
2022/12/17 15:03:15;;;;;;;;;;;21.90;31.10;;;;;;500368;237;2148;-44
2022/12/17 15:05:17;;;;;;;;;;;21.90;31.30;;;;;;500420;237;2296;-43
2022/12/17 15:07:19;;;;;;;;;;;21.80;31.30;;;;;;500421;237;1929;-40
2022/12/17 15:09:20;;;;;;;;;;;21.80;31.40;;;;;;500415;237;2141;-42
2022/12/17 15:11:21;;;;;;;;;;;21.70;31.50;;;;;;500396;237;2087;-44
2022/12/17 15:13:23;;;;;;;;;;;21.70;31.50;;;;;;500341;237;2009;-44
2022/12/17 15:15:24;;;;;;;;;;;21.70;31.50;;;;;;500317;237;2061;-43
2022/12/17 15:17:26;;;;;;;;;;;21.70;31.60;;;;;;500266;238;1947;-43
2022/12/17 15:19:28;;;;;;;;;;;21.60;31.70;;;;;;500495;237;1880;-44
2022/12/17 15:21:29;;;;;;;;;;;21.60;31.60;;;;;;500220;238;3197;-44
2022/12/17 15:23:32;;;;;;;;;;;21.60;31.70;;;;;;500270;237;2399;-44
2022/12/17 15:25:33;;;;;;;;;;;21.60;31.70;;;;;;500423;237;2417;-44
2022/12/17 15:27:34;;;;;;;;;;;21.60;31.80;;;;;;500357;237;2056;-41
2022/12/17 15:29:36;;;;;;;;;;;21.50;31.70;;;;;;500428;237;1909;-44
2022/12/17 15:31:37;;;;;;;;;;;21.50;31.70;;;;;;500276;237;1917;-44
2022/12/17 15:33:39;;;;;;;;;;;21.50;31.80;;;;;;500353;237;1782;-40
2022/12/17 15:35:40;;;;;;;;;;;21.50;31.80;;;;;;500328;237;1670;-44
2022/12/17 15:37:42;;;;;;;;;;;21.50;31.90;;;;;;500625;237;2207;-43
2022/12/17 15:39:43;;;;;;;;;;;21.50;31.80;;;;;;500415;237;1842;-44
2022/12/17 15:44:04;;;;;;;;;;;21.50;31.90;;;;;;500205;238;2263;-43
2022/12/17 15:46:09;;;;;;;;;;;21.50;31.80;;;;;;500202;237;1888;-41
2022/12/17 15:48:07;;;;;;;;;;;21.50;31.90;;;;;;500096;238;2175;-44
2022/12/17 15:50:08;;;;;;;;;;;21.40;31.80;;;;;;500207;237;2347;-43
2022/12/17 15:52:09;;;;;;;;;;;21.40;31.90;;;;;;500279;237;2326;-44
2022/12/17 15:54:11;;;;;;;;;;;21.40;31.90;;;;;;500336;237;2380;-43
2022/12/17 15:56:12;;;;;;;;;;;21.40;31.90;;;;;;500318;237;1945;-43
2022/12/17 15:58:15;;;;;;;;;;;21.40;31.90;;;;;;500297;237;1689;-44
2022/12/17 16:00:17;;;;;;;;;;;21.40;31.90;;;;;;500404;237;1690;-44
2022/12/17 16:02:18;;;;;;;;;;;21.40;31.90;;;;;;500895;237;2215;-44
2022/12/17 16:04:23;;;;;;;;;;;21.60;31.70;;;;;;500624;237;2195;-41
2022/12/17 16:06:24;;;;;;;;;;;21.80;31.30;;;;;;500519;237;1356;-45
2022/12/17 16:08:26;;;;;;;;;;;22.00;31.10;;;;;;500638;237;1253;-44
2022/12/17 16:10:27;;;;;;;;;;;22.20;30.80;;;;;;500718;237;1673;-44
2022/12/17 16:12:28;;;;;;;;;;;22.30;30.60;;;;;;500410;237;2152;-44
2022/12/17 16:14:30;;;;;;;;;;;22.40;30.40;;;;;;500773;237;1611;-44
2022/12/17 16:16:31;;;;;;;;;;;22.50;30.30;;;;;;500534;237;1893;-44
2022/12/17 16:18:32;;;;;;;;;;;22.60;30.20;;;;;;500772;237;1237;-41
2022/12/17 16:20:34;;;;;;;;;;;22.70;30.10;;;;;;500448;237;2689;-42
2022/12/17 16:22:35;;;;;;;;;;;22.70;30.10;;;;;;500405;237;1743;-43
2022/12/17 16:24:36;;;;;;;;;;;22.70;30.00;;;;;;500565;237;2163;-44
2022/12/17 16:26:38;;;;;;;;;;;22.80;30.00;;;;;;500420;237;1630;-44
2022/12/17 16:28:39;;;;;;;;;;;22.80;30.00;;;;;;500462;237;1749;-44
2022/12/17 16:30:40;;;;;;;;;;;22.90;30.00;;;;;;500410;237;1556;-43
2022/12/17 16:32:42;;;;;;;;;;;22.90;29.90;;;;;;500403;237;1673;-42
2022/12/17 16:34:43;;;;;;;;;;;22.90;29.90;;;;;;500453;237;1963;-43
2022/12/17 16:36:44;;;;;;;;;;;23.00;29.80;;;;;;500602;237;1664;-44
2022/12/17 16:38:46;;;;;;;;;;;23.00;29.80;;;;;;500290;237;2139;-41
2022/12/17 16:40:47;;;;;;;;;;;23.10;29.80;;;;;;500261;237;2532;-43
2022/12/17 16:42:48;;;;;;;;;;;23.10;29.70;;;;;;500341;237;2090;-44
2022/12/17 16:44:50;;;;;;;;;;;23.10;29.70;;;;;;500338;237;2183;-44
2022/12/17 16:46:52;;;;;;;;;;;23.10;29.70;;;;;;500217;237;1889;-43
2022/12/17 16:48:54;;;;;;;;;;;23.10;29.70;;;;;;500285;237;2076;-43
2022/12/17 16:50:55;;;;;;;;;;;23.20;29.70;;;;;;500171;237;2878;-45
2022/12/17 16:52:57;;;;;;;;;;;23.20;29.60;;;;;;500235;237;1687;-42
2022/12/17 16:54:58;;;;;;;;;;;23.20;29.60;;;;;;500258;237;2409;-41
2022/12/17 16:56:59;;;;;;;;;;;23.30;29.60;;;;;;500236;237;2369;-44
2022/12/17 16:59:01;;;;;;;;;;;23.30;29.60;;;;;;500270;237;1701;-44
2022/12/17 17:01:02;;;;;;;;;;;23.30;29.50;;;;;;500433;237;2679;-42
2022/12/17 17:03:03;;;;;;;;;;;23.30;29.50;;;;;;500350;237;1644;-44
2022/12/17 17:05:05;;;;;;;;;;;23.30;29.50;;;;;;500419;237;3135;-43
2022/12/17 17:07:06;;;;;;;;;;;23.30;29.50;;;;;;500227;237;1961;-44
2022/12/17 17:09:07;;;;;;;;;;;23.30;29.50;;;;;;500298;237;1782;-44
2022/12/17 17:11:09;;;;;;;;;;;23.30;29.50;;;;;;500767;237;1644;-43
2022/12/17 17:13:11;;;;;;;;;;;23.40;29.40;;;;;;500473;237;2352;-40
2022/12/17 17:15:12;;;;;;;;;;;23.40;29.40;;;;;;500628;238;2443;-44
2022/12/17 17:17:13;;;;;;;;;;;23.40;29.40;;;;;;500411;237;1878;-44
2022/12/17 17:19:14;;;;;;;;;;;23.40;29.40;;;;;;500806;237;1813;-45
2022/12/17 17:21:15;;;;;;;;;;;23.50;29.40;;;;;;500963;237;1931;-44
2022/12/17 17:23:17;;;;;;;;;;;23.50;29.40;;;;;;500538;237;1834;-44
2022/12/17 17:25:18;;;;;;;;;;;23.40;29.40;;;;;;500490;237;2180;-44
2022/12/17 17:27:19;;;;;;;;;;;23.40;29.40;;;;;;500543;237;1825;-44
2022/12/17 17:29:21;;;;;;;;;;;23.50;29.40;;;;;;500914;237;2318;-41
2022/12/17 17:31:22;;;;;;;;;;;23.50;29.40;;;;;;500406;237;2964;-44
2022/12/17 17:33:24;;;;;;;;;;;23.50;29.40;;;;;;500386;237;1663;-44
2022/12/17 17:35:25;;;;;;;;;;;23.50;29.40;;;;;;500919;237;1966;-44
2022/12/17 17:37:27;;;;;;;;;;;23.50;29.40;;;;;;500579;237;2199;-44
2022/12/17 17:39:31;;;;;;;;;;;23.50;29.40;;;;;;500563;237;1875;-44
2022/12/17 17:41:30;;;;;;;;;;;23.50;29.30;;;;;;500124;238;1907;-45
2022/12/17 17:43:32;;;;;;;;;;;23.60;29.40;;;;;;500409;237;1939;-44
2022/12/17 17:45:33;;;;;;;;;;;23.50;29.30;;;;;;500384;237;2145;-44
2022/12/17 17:47:35;;;;;;;;;;;23.50;29.30;;;;;;500455;237;1703;-44
2022/12/17 17:49:36;;;;;;;;;;;23.50;29.40;;;;;;500475;237;1816;-44
2022/12/17 17:51:40;;;;;;;;;;;23.40;29.50;;;;;;500709;237;1695;-44
2022/12/17 17:53:40;;;;;;;;;;;23.20;29.70;;;;;;500494;238;2118;-44
2022/12/17 17:55:41;;;;;;;;;;;22.90;29.90;;;;;;500718;237;1773;-44
2022/12/17 17:57:42;;;;;;;;;;;22.80;30.10;;;;;;500462;237;1909;-42
2022/12/17 17:59:44;;;;;;;;;;;22.90;30.00;;;;;;500354;237;2408;-40
2022/12/17 18:01:45;;;;;;;;;;;22.80;30.00;;;;;;500379;237;1807;-44
2022/12/17 18:03:47;;;;;;;;;;;22.70;30.20;;;;;;500373;237;1939;-41
2022/12/17 18:05:48;;;;;;;;;;;22.60;30.40;;;;;;500408;237;2755;-41
2022/12/17 18:07:50;;;;;;;;;;;22.50;30.60;;;;;;500392;237;2126;-44
2022/12/17 18:09:51;;;;;;;;;;;22.30;30.60;;;;;;500394;237;3121;-44
2022/12/17 18:11:52;;;;;;;;;;;22.20;30.80;;;;;;500215;237;2025;-43
2022/12/17 18:13:57;;;;;;;;;;;22.10;30.90;;;;;;500199;237;2379;-44
2022/12/17 18:15:59;;;;;;;;;;;22.10;31.10;;;;;;500160;237;2063;-43
2022/12/17 18:18:00;;;;;;;;;;;22.10;31.10;;;;;;500164;237;1921;-43
2022/12/17 18:20:02;;;;;;;;;;;22.10;31.20;;;;;;500171;237;2052;-44
2022/12/17 18:22:03;;;;;;;;;;;22.00;31.20;;;;;;500014;237;2371;-44
2022/12/17 18:24:05;;;;;;;;;;;22.00;31.20;;;;;;500097;237;2239;-44
2022/12/17 18:26:06;;;;;;;;;;;22.00;31.20;;;;;;500018;237;1845;-43
2022/12/17 18:28:08;;;;;;;;;;;22.00;31.30;;;;;;500041;237;2164;-44
2022/12/17 18:30:10;;;;;;;;;;;21.90;31.30;;;;;;500113;237;2496;-44
2022/12/17 18:32:13;;;;;;;;;;;21.80;31.40;;;;;;500097;237;2178;-44
2022/12/17 18:34:15;;;;;;;;;;;21.80;31.40;;;;;;500265;237;1786;-41
2022/12/17 18:36:17;;;;;;;;;;;21.90;31.50;;;;;;500230;237;2101;-41
2022/12/17 18:38:18;;;;;;;;;;;21.80;31.50;;;;;;500187;237;2360;-44
2022/12/17 18:40:20;;;;;;;;;;;21.80;31.60;;;;;;500248;237;1946;-44
2022/12/17 18:44:42;;;;;;;;;;;22.00;31.20;;;;;;500399;238;2657;-43
2022/12/17 18:46:44;;;;;;;;;;;22.30;30.90;;;;;;500267;237;2506;-44
2022/12/17 18:48:45;;;;;;;;;;;22.50;30.60;;;;;;500281;237;2039;-44
2022/12/17 18:50:47;;;;;;;;;;;22.50;30.40;;;;;;500318;237;1960;-44
2022/12/17 18:52:48;;;;;;;;;;;22.50;30.40;;;;;;500368;237;1862;-44
2022/12/17 18:54:50;;;;;;;;;;;22.30;30.60;;;;;;500247;237;1925;-44
2022/12/17 18:56:51;;;;;;;;;;;22.20;30.80;;;;;;500362;237;1897;-44
2022/12/17 18:58:53;;;;;;;;;;;22.10;31.10;;;;;;500257;237;1760;-44
2022/12/17 19:00:54;;;;;;;;;;;22.00;31.10;;;;;;500195;237;1906;-44
2022/12/17 19:02:55;;;;;;;;;;;21.90;31.20;;;;;;499751;238;2119;-44
2022/12/17 19:04:57;;;;;;;;;;;21.80;31.30;;;;;;500384;237;2153;-43
2022/12/17 19:06:59;;;;;;;;;;;21.80;31.40;;;;;;500145;237;1909;-41
2022/12/17 19:09:00;;;;;;;;;;;21.80;31.40;;;;;;500476;237;1582;-43
2022/12/17 19:11:02;;;;;;;;;;;21.80;31.50;;;;;;500442;237;1931;-44
2022/12/17 19:13:04;;;;;;;;;;;21.70;31.50;;;;;;500364;237;1691;-43
2022/12/17 19:15:06;;;;;;;;;;;21.70;31.60;;;;;;500277;237;2225;-44
2022/12/17 19:17:07;;;;;;;;;;;21.70;31.60;;;;;;500288;237;1665;-44
2022/12/17 19:19:08;;;;;;;;;;;21.60;31.60;;;;;;500305;237;1963;-44
2022/12/17 19:21:10;;;;;;;;;;;21.60;31.70;;;;;;500528;237;1937;-40
2022/12/17 19:23:11;;;;;;;;;;;21.60;31.70;;;;;;500495;237;2122;-44
2022/12/17 19:25:12;;;;;;;;;;;21.60;31.70;;;;;;500541;237;2168;-43
2022/12/17 19:27:14;;;;;;;;;;;21.60;31.70;;;;;;500636;237;1722;-44
2022/12/17 19:29:15;;;;;;;;;;;21.60;31.80;;;;;;500623;237;2186;-43
2022/12/17 19:31:17;;;;;;;;;;;21.50;31.80;;;;;;500338;238;2006;-43
2022/12/17 19:33:18;;;;;;;;;;;21.60;31.80;;;;;;500610;237;1904;-41
2022/12/17 19:35:20;;;;;;;;;;;21.60;31.80;;;;;;500482;237;1724;-43
2022/12/17 19:37:21;;;;;;;;;;;21.50;31.80;;;;;;500569;237;2070;-44
2022/12/17 19:39:23;;;;;;;;;;;21.50;31.80;;;;;;500917;237;1605;-40
2022/12/17 19:41:24;;;;;;;;;;;21.50;31.80;;;;;;500510;237;2844;-44
2022/12/17 19:43:25;;;;;;;;;;;21.50;31.80;;;;;;500561;237;1667;-42
2022/12/17 19:45:27;;;;;;;;;;;21.50;31.80;;;;;;500381;237;2188;-43
2022/12/17 19:47:29;;;;;;;;;;;21.50;31.80;;;;;;500474;237;2022;-44
2022/12/17 19:49:31;;;;;;;;;;;21.50;31.80;;;;;;500358;237;1779;-44
2022/12/17 19:51:31;;;;;;;;;;;21.50;31.80;;;;;;500418;238;2555;-41
2022/12/17 19:53:33;;;;;;;;;;;21.50;31.80;;;;;;500463;237;1857;-44
2022/12/17 19:55:35;;;;;;;;;;;21.50;31.80;;;;;;500380;237;2181;-44
2022/12/17 19:57:36;;;;;;;;;;;21.50;31.80;;;;;;500520;237;1872;-41
2022/12/17 19:59:39;;;;;;;;;;;21.40;31.80;;;;;;500367;237;1896;-44
2022/12/17 20:01:40;;;;;;;;;;;21.40;31.90;;;;;;500487;237;2140;-44
2022/12/17 20:03:42;;;;;;;;;;;21.40;31.90;;;;;;500314;237;1642;-43
2022/12/17 20:05:44;;;;;;;;;;;21.40;31.90;;;;;;500435;237;2143;-44
2022/12/17 20:07:45;;;;;;;;;;;21.50;31.90;;;;;;500318;237;2360;-43
2022/12/17 20:09:47;;;;;;;;;;;21.50;31.80;;;;;;500393;237;2573;-44
2022/12/17 20:11:48;;;;;;;;;;;21.40;31.80;;;;;;500419;237;2335;-44
2022/12/17 20:13:49;;;;;;;;;;;21.50;31.90;;;;;;500396;237;2547;-44
2022/12/17 20:15:51;;;;;;;;;;;21.40;31.80;;;;;;500408;237;2392;-44
2022/12/17 20:17:54;;;;;;;;;;;21.40;31.90;;;;;;500406;237;2355;-43
2022/12/17 20:19:56;;;;;;;;;;;21.40;31.90;;;;;;500414;237;1822;-44
2022/12/17 20:22:01;;;;;;;;;;;21.40;31.90;;;;;;500318;237;1970;-44
2022/12/17 20:24:02;;;;;;;;;;;21.40;31.90;;;;;;500768;237;2199;-44
2022/12/17 20:26:03;;;;;;;;;;;21.40;31.90;;;;;;500382;237;2810;-44
2022/12/17 20:28:05;;;;;;;;;;;21.30;31.90;;;;;;500476;237;1999;-43
2022/12/17 20:30:06;;;;;;;;;;;21.40;32.00;;;;;;500434;237;1826;-41
2022/12/17 20:32:08;;;;;;;;;;;21.40;31.90;;;;;;500376;237;2156;-44
2022/12/17 20:34:09;;;;;;;;;;;21.40;31.90;;;;;;500203;237;1928;-41
2022/12/17 20:36:11;;;;;;;;;;;21.40;32.00;;;;;;500337;237;1844;-44
2022/12/17 20:38:12;;;;;;;;;;;21.30;31.90;;;;;;500363;237;2275;-44
2022/12/17 20:40:14;;;;;;;;;;;21.40;31.90;;;;;;500308;237;2003;-43
2022/12/17 20:42:17;;;;;;;;;;;21.40;31.90;;;;;;500338;237;2214;-41
2022/12/17 20:44:18;;;;;;;;;;;21.40;31.90;;;;;;500239;237;2501;-44
2022/12/17 20:46:20;;;;;;;;;;;21.40;31.90;;;;;;500240;237;2209;-43
2022/12/17 20:48:21;;;;;;;;;;;21.40;31.90;;;;;;500247;237;2057;-44
2022/12/17 20:50:22;;;;;;;;;;;21.40;31.90;;;;;;500222;237;1869;-44
2022/12/17 20:52:24;;;;;;;;;;;21.40;31.90;;;;;;500206;237;2304;-41
2022/12/17 20:54:25;;;;;;;;;;;21.40;31.90;;;;;;500236;237;2676;-44
2022/12/17 20:56:27;;;;;;;;;;;21.40;31.90;;;;;;500237;237;2121;-43
2022/12/17 20:58:29;;;;;;;;;;;21.40;31.80;;;;;;500227;237;2384;-44
2022/12/17 21:00:30;;;;;;;;;;;21.40;31.90;;;;;;500243;237;2030;-44
2022/12/17 21:02:31;;;;;;;;;;;21.40;31.90;;;;;;500319;237;1967;-43
2022/12/17 21:04:33;;;;;;;;;;;21.30;31.90;;;;;;500233;237;1745;-43
2022/12/17 21:06:34;;;;;;;;;;;21.40;31.90;;;;;;500279;237;2158;-43
2022/12/17 21:08:36;;;;;;;;;;;21.30;31.90;;;;;;500229;238;2286;-44
2022/12/17 21:10:38;;;;;;;;;;;21.30;31.90;;;;;;500353;237;1987;-40
2022/12/17 21:14:58;;;;;;;;;;;21.30;32.00;;;;;;500481;238;2428;-44
2022/12/17 21:17:00;;;;;;;;;;;21.30;31.90;;;;;;500689;237;1954;-44
2022/12/17 21:19:01;;;;;;;;;;;21.30;31.90;;;;;;500574;237;2232;-44
2022/12/17 21:21:03;;;;;;;;;;;21.30;31.90;;;;;;500261;237;1768;-43
2022/12/17 21:23:04;;;;;;;;;;;21.40;31.90;;;;;;500251;237;2805;-44
2022/12/17 21:25:06;;;;;;;;;;;21.30;31.90;;;;;;500436;237;2199;-43
2022/12/17 21:27:07;;;;;;;;;;;21.30;31.90;;;;;;500215;238;2408;-43
2022/12/17 21:29:09;;;;;;;;;;;21.30;31.90;;;;;;500231;237;1970;-43
2022/12/17 21:31:10;;;;;;;;;;;21.30;31.90;;;;;;500240;237;2105;-43
2022/12/17 21:33:12;;;;;;;;;;;21.30;32.00;;;;;;500298;237;1948;-44
2022/12/17 21:35:14;;;;;;;;;;;21.30;32.00;;;;;;500287;237;1655;-44
2022/12/17 21:37:15;;;;;;;;;;;21.30;32.00;;;;;;500195;237;2173;-44
2022/12/17 21:39:17;;;;;;;;;;;21.30;32.00;;;;;;500319;238;1769;-44
2022/12/17 21:41:18;;;;;;;;;;;21.30;31.90;;;;;;500627;237;1735;-44
2022/12/17 21:43:20;;;;;;;;;;;21.30;31.90;;;;;;500622;237;1323;-44
2022/12/17 21:45:21;;;;;;;;;;;21.30;31.90;;;;;;500456;237;2146;-43
2022/12/17 21:47:23;;;;;;;;;;;21.30;32.00;;;;;;500770;237;1705;-44
2022/12/17 21:49:25;;;;;;;;;;;21.30;31.90;;;;;;500458;237;1917;-41
2022/12/17 21:51:26;;;;;;;;;;;21.30;31.90;;;;;;500397;237;3117;-44
2022/12/17 21:53:28;;;;;;;;;;;21.30;31.90;;;;;;500536;237;2280;-44
2022/12/17 21:55:29;;;;;;;;;;;21.30;31.90;;;;;;500500;237;1702;-44
2022/12/17 21:57:31;;;;;;;;;;;21.30;32.00;;;;;;500449;237;2272;-44
2022/12/17 21:59:32;;;;;;;;;;;21.30;32.00;;;;;;500332;237;1842;-44
2022/12/17 22:01:33;;;;;;;;;;;21.30;31.90;;;;;;500718;237;2202;-43
2022/12/17 22:03:35;;;;;;;;;;;21.20;31.90;;;;;;500370;237;2290;-44
2022/12/17 22:05:36;;;;;;;;;;;21.20;31.90;;;;;;500527;237;2148;-44
2022/12/17 22:07:37;;;;;;;;;;;21.30;32.00;;;;;;500364;237;2629;-44
2022/12/17 22:09:39;;;;;;;;;;;21.20;31.90;;;;;;500443;237;1826;-44
2022/12/17 22:11:40;;;;;;;;;;;21.20;32.00;;;;;;500435;237;2188;-41
2022/12/17 22:16:01;;;;;;;;;;;21.20;32.00;;;;;;500509;238;2157;-44
2022/12/17 22:18:03;;;;;;;;;;;21.20;32.00;;;;;;500485;237;1621;-44
2022/12/17 22:20:05;;;;;;;;;;;21.20;32.00;;;;;;500717;237;2166;-44
2022/12/17 22:22:06;;;;;;;;;;;21.20;31.90;;;;;;500272;237;1779;-44
2022/12/17 22:24:09;;;;;;;;;;;21.30;32.00;;;;;;500248;237;2134;-43
2022/12/17 22:26:11;;;;;;;;;;;21.30;32.00;;;;;;500231;237;2333;-44
2022/12/17 22:28:12;;;;;;;;;;;21.30;31.90;;;;;;500362;237;2419;-44
2022/12/17 22:34:53;;;;;;;;;;;21.80;31.10;;;;;;500489;238;2083;-44
2022/12/17 22:36:54;;;;;;;;;;;22.00;30.90;;;;;;500305;237;2066;-44
2022/12/17 22:38:55;;;;;;;;;;;22.10;30.70;;;;;;500393;237;2143;-40
2022/12/17 22:40:57;;;;;;;;;;;22.20;30.50;;;;;;500300;237;1899;-44
2022/12/17 22:45:17;;;;;;;;;;;22.40;30.30;;;;;;500338;238;2126;-44
2022/12/17 22:47:19;;;;;;;;;;;22.50;30.30;;;;;;500296;237;2196;-43
2022/12/17 22:49:20;;;;;;;;;;;22.50;30.10;;;;;;500266;237;1871;-44
2022/12/17 22:51:22;;;;;;;;;;;22.60;30.10;;;;;;500370;237;1965;-41
2022/12/17 22:53:24;;;;;;;;;;;22.60;30.00;;;;;;500445;237;2404;-44
2022/12/17 22:55:25;;;;;;;;;;;22.70;30.00;;;;;;500256;237;2326;-42
2022/12/17 22:57:27;;;;;;;;;;;22.70;30.00;;;;;;500326;237;1697;-44
2022/12/17 22:59:28;;;;;;;;;;;22.70;29.90;;;;;;500169;237;1926;-43
2022/12/17 23:01:30;;;;;;;;;;;22.80;29.90;;;;;;500309;237;2032;-44
2022/12/17 23:03:31;;;;;;;;;;;22.80;29.90;;;;;;500549;237;1721;-44
2022/12/17 23:05:32;;;;;;;;;;;22.80;29.80;;;;;;500379;237;1921;-44
2022/12/17 23:07:34;;;;;;;;;;;22.90;29.80;;;;;;500260;237;2211;-44
2022/12/17 23:09:35;;;;;;;;;;;22.90;29.80;;;;;;500292;237;2277;-44
2022/12/17 23:11:36;;;;;;;;;;;22.90;29.80;;;;;;500314;237;1946;-44
2022/12/17 23:13:38;;;;;;;;;;;23.00;29.80;;;;;;500397;237;2458;-41
2022/12/17 23:15:39;;;;;;;;;;;23.00;29.70;;;;;;500668;237;1672;-44
2022/12/17 23:17:41;;;;;;;;;;;23.00;29.70;;;;;;500372;237;1679;-44
2022/12/17 23:19:42;;;;;;;;;;;23.00;29.70;;;;;;500426;237;1707;-41
2022/12/17 23:21:44;;;;;;;;;;;23.10;29.70;;;;;;500641;237;2492;-43
2022/12/17 23:23:45;;;;;;;;;;;23.10;29.70;;;;;;500784;237;1938;-44
2022/12/17 23:25:48;;;;;;;;;;;23.10;29.70;;;;;;500481;237;2156;-40
2022/12/17 23:27:49;;;;;;;;;;;23.10;29.60;;;;;;500580;237;1558;-44
2022/12/17 23:29:50;;;;;;;;;;;23.10;29.60;;;;;;500550;237;1687;-44
2022/12/17 23:31:52;;;;;;;;;;;23.20;29.60;;;;;;500654;237;1568;-44
2022/12/17 23:33:53;;;;;;;;;;;23.20;29.60;;;;;;500415;237;1623;-43
2022/12/17 23:35:55;;;;;;;;;;;23.20;29.50;;;;;;500445;237;1629;-40
2022/12/17 23:37:56;;;;;;;;;;;23.20;29.50;;;;;;500515;237;1657;-41
2022/12/17 23:39:57;;;;;;;;;;;23.20;29.50;;;;;;500767;237;1889;-44
2022/12/17 23:41:59;;;;;;;;;;;23.20;29.50;;;;;;500468;237;1906;-43
2022/12/17 23:44:00;;;;;;;;;;;23.20;29.50;;;;;;500555;237;1539;-44
2022/12/17 23:46:01;;;;;;;;;;;23.30;29.50;;;;;;500787;237;2136;-44
2022/12/17 23:48:03;;;;;;;;;;;23.30;29.50;;;;;;500481;237;1693;-40
2022/12/17 23:50:04;;;;;;;;;;;23.30;29.50;;;;;;500960;237;2080;-44
2022/12/17 23:52:06;;;;;;;;;;;23.30;29.40;;;;;;500538;237;1980;-43
2022/12/17 23:54:08;;;;;;;;;;;23.30;29.40;;;;;;500899;237;1697;-44
2022/12/17 23:56:09;;;;;;;;;;;23.40;29.40;;;;;;500663;237;1698;-44
2022/12/17 23:58:11;;;;;;;;;;;23.40;29.40;;;;;;501060;237;1696;-44
